Airfield :
LOGIN :

Register | Disclaimer

   EN    FR    IT 

 










Legend :    VFR   Marginal VFR   IFR   Intensive IFR   Very Intensive IFR
Visi :
Ceiling :
>= 8 km
>= 3000ft
5 to 8 km
1000 to 3000 ft
1500m to 5 km
500 to 1000 ft
800 to 1500m
200 to 500 ft
< 800m
< 200 ft
Symbols :   Thunderstorms  Fog  Heavy snow  Heavy precipitations  Wind > 20 kt
SIGMETs :     Misc.  Thunderstorms  Icing  Turbulence  Mountain Waves  Volcanic Ashes







- Airport Elevation : 325 ft
- IATA code : POX
- Download approach charts


LFPT - Pontoise

CURRENT METAR :
  • 260900Z AUTO 27008KT 230V310 9999 BKN028 BKN034 BKN040 12/05 Q1021

EXPIRED METARs :
  • 260830Z AUTO 28009KT 250V310 9999 BKN022 BKN028 OVC033 11/05 Q1021
  • 260800Z AUTO 27010KT 240V310 9999 BKN021 10/05 Q1020
  • 260730Z AUTO 26010KT 230V290 9999 BKN017 10/05 Q1020
  • 260700Z AUTO 25006KT 9999 FEW019 09/06 Q1020
  • 260630Z AUTO 24006KT CAVOK 08/05 Q1020

TAF N/A
ATIS : +33 1 30 30 52 08
No reported NOTAMs for that airfield.



MET'MAP, your aeronautical weather chart ! - Copyright ORBIFLY December 2007 - Disclaimer

ORBIFLY MET'MAP TEAM :

Programming & Development : Alexandra Zaïnal
Concept & Development : Baudouin d'Aumeries
Co-Development & Prog : Marc-Olivier Méhu
Technical & hardware support : Manuel Goepfert

Contact : metmap@orbifly.com




SOURCES & CREDITS :

   NOAA